sensor_id;sensor_type;location;lat;lon;timestamp;P1;durP1;ratioP1;P2;durP2;ratioP2
21569;SDS011;57598;50.888;4.746;2023-08-30T00:03:52;47.70;;;43.60;;
21569;SDS011;57598;50.888;4.746;2023-08-30T00:06:20;48.55;;;44.35;;
21569;SDS011;57598;50.888;4.746;2023-08-30T00:08:47;47.42;;;43.22;;
21569;SDS011;57598;50.888;4.746;2023-08-30T00:11:14;47.00;;;42.80;;
21569;SDS011;57598;50.888;4.746;2023-08-30T00:13:42;48.67;;;44.47;;
21569;SDS011;57598;50.888;4.746;2023-08-30T00:16:09;47.53;;;43.33;;
21569;SDS011;57598;50.888;4.746;2023-08-30T00:18:38;48.05;;;43.85;;
21569;SDS011;57598;50.888;4.746;2023-08-30T00:21:06;49.90;;;45.60;;
21569;SDS011;57598;50.888;4.746;2023-08-30T00:23:35;48.05;;;43.85;;
21569;SDS011;57598;50.888;4.746;2023-08-30T00:26:02;49.08;;;44.85;;
21569;SDS011;57598;50.888;4.746;2023-08-30T00:28:29;49.85;;;45.55;;
21569;SDS011;57598;50.888;4.746;2023-08-30T00:30:56;48.90;;;44.65;;
21569;SDS011;57598;50.888;4.746;2023-08-30T00:33:23;47.40;;;43.20;;
21569;SDS011;57598;50.888;4.746;2023-08-30T00:35:57;48.40;;;44.20;;
21569;SDS011;57598;50.888;4.746;2023-08-30T00:38:27;48.28;;;44.08;;
21569;SDS011;57598;50.888;4.746;2023-08-30T00:40:54;48.38;;;44.17;;
21569;SDS011;57598;50.888;4.746;2023-08-30T00:43:22;47.80;;;43.70;;
21569;SDS011;57598;50.888;4.746;2023-08-30T00:45:49;48.38;;;44.25;;
21569;SDS011;57598;50.888;4.746;2023-08-30T00:48:16;48.97;;;44.78;;
21569;SDS011;57598;50.888;4.746;2023-08-30T00:50:45;49.30;;;44.90;;
21569;SDS011;57598;50.888;4.746;2023-08-30T00:53:12;47.05;;;42.95;;
21569;SDS011;57598;50.888;4.746;2023-08-30T00:55:41;48.90;;;44.58;;
21569;SDS011;57598;50.888;4.746;2023-08-30T00:58:08;46.90;;;42.80;;
21569;SDS011;57598;50.888;4.746;2023-08-30T01:00:36;47.15;;;43.05;;
21569;SDS011;57598;50.888;4.746;2023-08-30T01:03:04;48.33;;;44.22;;
21569;SDS011;57598;50.888;4.746;2023-08-30T01:05:32;48.70;;;44.60;;
21569;SDS011;57598;50.888;4.746;2023-08-30T01:08:00;48.33;;;44.15;;
21569;SDS011;57598;50.888;4.746;2023-08-30T01:10:31;48.75;;;44.55;;
21569;SDS011;57598;50.888;4.746;2023-08-30T01:13:03;50.72;;;46.42;;
21569;SDS011;57598;50.888;4.746;2023-08-30T01:15:32;47.20;;;43.20;;
21569;SDS011;57598;50.888;4.746;2023-08-30T01:18:01;48.80;;;44.55;;
21569;SDS011;57598;50.888;4.746;2023-08-30T01:20:29;46.25;;;42.25;;
21569;SDS011;57598;50.888;4.746;2023-08-30T01:22:58;47.35;;;43.20;;
21569;SDS011;57598;50.888;4.746;2023-08-30T01:25:31;48.20;;;44.10;;
21569;SDS011;57598;50.888;4.746;2023-08-30T01:28:03;47.10;;;43.10;;
21569;SDS011;57598;50.888;4.746;2023-08-30T01:32:58;46.00;;;42.05;;
21569;SDS011;57598;50.888;4.746;2023-08-30T01:35:25;47.15;;;43.15;;
21569;SDS011;57598;50.888;4.746;2023-08-30T01:37:57;47.13;;;42.92;;
21569;SDS011;57598;50.888;4.746;2023-08-30T01:40:25;47.40;;;43.28;;
21569;SDS011;57598;50.888;4.746;2023-08-30T01:42:53;49.70;;;45.28;;
21569;SDS011;57598;50.888;4.746;2023-08-30T01:45:22;47.80;;;43.70;;
21569;SDS011;57598;50.888;4.746;2023-08-30T01:47:50;46.92;;;42.83;;
21569;SDS011;57598;50.888;4.746;2023-08-30T01:50:18;47.20;;;43.10;;
21569;SDS011;57598;50.888;4.746;2023-08-30T01:52:46;46.95;;;42.95;;
21569;SDS011;57598;50.888;4.746;2023-08-30T01:55:14;46.92;;;42.92;;
21569;SDS011;57598;50.888;4.746;2023-08-30T01:57:42;47.95;;;43.95;;
21569;SDS011;57598;50.888;4.746;2023-08-30T02:00:10;47.50;;;43.40;;
21569;SDS011;57598;50.888;4.746;2023-08-30T02:02:39;47.08;;;43.08;;
21569;SDS011;57598;50.888;4.746;2023-08-30T02:05:06;46.33;;;42.42;;
21569;SDS011;57598;50.888;4.746;2023-08-30T02:07:35;47.30;;;43.30;;
21569;SDS011;57598;50.888;4.746;2023-08-30T02:10:06;47.30;;;43.30;;
21569;SDS011;57598;50.888;4.746;2023-08-30T02:12:39;47.97;;;43.88;;
21569;SDS011;57598;50.888;4.746;2023-08-30T02:15:07;48.25;;;44.15;;
21569;SDS011;57598;50.888;4.746;2023-08-30T02:17:35;47.05;;;42.97;;
21569;SDS011;57598;50.888;4.746;2023-08-30T02:20:04;47.85;;;43.75;;
21569;SDS011;57598;50.888;4.746;2023-08-30T02:22:32;47.10;;;43.10;;
21569;SDS011;57598;50.888;4.746;2023-08-30T02:24:59;46.17;;;42.20;;
21569;SDS011;57598;50.888;4.746;2023-08-30T02:27:29;48.83;;;44.47;;
21569;SDS011;57598;50.888;4.746;2023-08-30T02:29:57;46.58;;;42.58;;
21569;SDS011;57598;50.888;4.746;2023-08-30T02:32:24;46.95;;;42.95;;
21569;SDS011;57598;50.888;4.746;2023-08-30T02:34:52;46.00;;;42.10;;
21569;SDS011;57598;50.888;4.746;2023-08-30T02:37:21;47.00;;;43.00;;
21569;SDS011;57598;50.888;4.746;2023-08-30T02:39:49;46.65;;;42.65;;
21569;SDS011;57598;50.888;4.746;2023-08-30T02:42:16;47.28;;;43.17;;
21569;SDS011;57598;50.888;4.746;2023-08-30T02:44:43;47.90;;;43.78;;
21569;SDS011;57598;50.888;4.746;2023-08-30T02:47:11;45.78;;;41.90;;
21569;SDS011;57598;50.888;4.746;2023-08-30T02:49:38;45.65;;;41.85;;
21569;SDS011;57598;50.888;4.746;2023-08-30T02:52:05;47.28;;;43.28;;
21569;SDS011;57598;50.888;4.746;2023-08-30T02:54:33;46.72;;;42.80;;
21569;SDS011;57598;50.888;4.746;2023-08-30T02:57:01;47.20;;;43.00;;
21569;SDS011;57598;50.888;4.746;2023-08-30T02:59:29;45.17;;;41.38;;
21569;SDS011;57598;50.888;4.746;2023-08-30T03:01:56;45.97;;;42.15;;
21569;SDS011;57598;50.888;4.746;2023-08-30T03:04:23;48.80;;;44.25;;
21569;SDS011;57598;50.888;4.746;2023-08-30T03:06:50;44.25;;;40.55;;
21569;SDS011;57598;50.888;4.746;2023-08-30T03:09:18;45.45;;;41.65;;
21569;SDS011;57598;50.888;4.746;2023-08-30T03:11:46;45.38;;;41.60;;
21569;SDS011;57598;50.888;4.746;2023-08-30T03:14:14;46.45;;;42.65;;
21569;SDS011;57598;50.888;4.746;2023-08-30T03:16:41;46.10;;;42.30;;
21569;SDS011;57598;50.888;4.746;2023-08-30T03:19:10;45.80;;;41.90;;
21569;SDS011;57598;50.888;4.746;2023-08-30T03:21:37;45.60;;;41.80;;
21569;SDS011;57598;50.888;4.746;2023-08-30T03:24:04;44.65;;;40.90;;
21569;SDS011;57598;50.888;4.746;2023-08-30T03:26:32;45.78;;;41.97;;
21569;SDS011;57598;50.888;4.746;2023-08-30T03:29:00;44.38;;;40.67;;
21569;SDS011;57598;50.888;4.746;2023-08-30T03:31:28;47.00;;;42.92;;
21569;SDS011;57598;50.888;4.746;2023-08-30T03:33:55;46.33;;;42.22;;
21569;SDS011;57598;50.888;4.746;2023-08-30T03:36:22;45.17;;;41.47;;
21569;SDS011;57598;50.888;4.746;2023-08-30T03:38:49;44.90;;;41.20;;
21569;SDS011;57598;50.888;4.746;2023-08-30T03:41:17;46.17;;;42.47;;
21569;SDS011;57598;50.888;4.746;2023-08-30T03:43:44;43.95;;;40.35;;
21569;SDS011;57598;50.888;4.746;2023-08-30T03:46:13;45.10;;;41.40;;
21569;SDS011;57598;50.888;4.746;2023-08-30T03:48:40;45.45;;;41.75;;
21569;SDS011;57598;50.888;4.746;2023-08-30T03:51:07;44.63;;;40.92;;
21569;SDS011;57598;50.888;4.746;2023-08-30T03:53:35;45.30;;;41.50;;
21569;SDS011;57598;50.888;4.746;2023-08-30T03:56:02;44.20;;;40.55;;
21569;SDS011;57598;50.888;4.746;2023-08-30T03:58:29;44.20;;;40.55;;
21569;SDS011;57598;50.888;4.746;2023-08-30T04:00:56;44.83;;;41.13;;
21569;SDS011;57598;50.888;4.746;2023-08-30T04:03:25;45.50;;;41.90;;
21569;SDS011;57598;50.888;4.746;2023-08-30T04:05:54;44.83;;;41.22;;
21569;SDS011;57598;50.888;4.746;2023-08-30T04:08:22;45.85;;;41.92;;
21569;SDS011;57598;50.888;4.746;2023-08-30T04:10:51;44.22;;;40.72;;
21569;SDS011;57598;50.888;4.746;2023-08-30T04:13:18;44.67;;;41.10;;
21569;SDS011;57598;50.888;4.746;2023-08-30T04:15:46;44.42;;;40.95;;
21569;SDS011;57598;50.888;4.746;2023-08-30T04:18:13;44.60;;;41.10;;
21569;SDS011;57598;50.888;4.746;2023-08-30T04:20:44;46.92;;;43.33;;
21569;SDS011;57598;50.888;4.746;2023-08-30T04:23:11;45.00;;;41.50;;
21569;SDS011;57598;50.888;4.746;2023-08-30T04:25:39;47.35;;;43.58;;
21569;SDS011;57598;50.888;4.746;2023-08-30T04:28:06;48.22;;;44.35;;
21569;SDS011;57598;50.888;4.746;2023-08-30T04:30:35;47.45;;;43.75;;
21569;SDS011;57598;50.888;4.746;2023-08-30T04:33:02;44.33;;;40.83;;
21569;SDS011;57598;50.888;4.746;2023-08-30T04:35:30;46.88;;;43.13;;
21569;SDS011;57598;50.888;4.746;2023-08-30T04:38:00;46.55;;;42.95;;
21569;SDS011;57598;50.888;4.746;2023-08-30T04:40:28;45.53;;;41.63;;
21569;SDS011;57598;50.888;4.746;2023-08-30T04:42:55;46.40;;;42.50;;
21569;SDS011;57598;50.888;4.746;2023-08-30T04:45:23;43.92;;;40.53;;
21569;SDS011;57598;50.888;4.746;2023-08-30T04:47:50;44.65;;;41.15;;
21569;SDS011;57598;50.888;4.746;2023-08-30T04:50:18;45.05;;;41.53;;
21569;SDS011;57598;50.888;4.746;2023-08-30T04:52:45;44.42;;;40.72;;
21569;SDS011;57598;50.888;4.746;2023-08-30T04:55:13;45.80;;;41.92;;
21569;SDS011;57598;50.888;4.746;2023-08-30T04:57:41;44.42;;;40.95;;
21569;SDS011;57598;50.888;4.746;2023-08-30T05:00:10;43.80;;;40.22;;
21569;SDS011;57598;50.888;4.746;2023-08-30T05:02:37;46.33;;;42.53;;
21569;SDS011;57598;50.888;4.746;2023-08-30T05:05:06;45.78;;;41.80;;
21569;SDS011;57598;50.888;4.746;2023-08-30T05:07:33;43.65;;;40.15;;
21569;SDS011;57598;50.888;4.746;2023-08-30T05:10:00;47.10;;;43.20;;
21569;SDS011;57598;50.888;4.746;2023-08-30T05:12:29;46.13;;;42.13;;
21569;SDS011;57598;50.888;4.746;2023-08-30T05:14:56;43.22;;;39.45;;
21569;SDS011;57598;50.888;4.746;2023-08-30T05:17:24;43.22;;;39.55;;
21569;SDS011;57598;50.888;4.746;2023-08-30T05:19:53;46.40;;;42.40;;
21569;SDS011;57598;50.888;4.746;2023-08-30T05:22:20;46.13;;;42.03;;
21569;SDS011;57598;50.888;4.746;2023-08-30T05:24:47;47.42;;;43.33;;
21569;SDS011;57598;50.888;4.746;2023-08-30T05:27:15;43.95;;;40.25;;
21569;SDS011;57598;50.888;4.746;2023-08-30T05:29:44;44.35;;;40.63;;
21569;SDS011;57598;50.888;4.746;2023-08-30T05:32:11;47.15;;;42.95;;
21569;SDS011;57598;50.888;4.746;2023-08-30T05:34:39;44.90;;;41.28;;
21569;SDS011;57598;50.888;4.746;2023-08-30T05:37:06;45.92;;;41.60;;
21569;SDS011;57598;50.888;4.746;2023-08-30T05:39:33;46.05;;;42.35;;
21569;SDS011;57598;50.888;4.746;2023-08-30T05:42:01;43.22;;;39.58;;
21569;SDS011;57598;50.888;4.746;2023-08-30T05:44:28;45.63;;;41.92;;
21569;SDS011;57598;50.888;4.746;2023-08-30T05:46:57;44.80;;;40.78;;
21569;SDS011;57598;50.888;4.746;2023-08-30T05:49:24;48.17;;;44.05;;
21569;SDS011;57598;50.888;4.746;2023-08-30T05:51:51;46.83;;;42.70;;
21569;SDS011;57598;50.888;4.746;2023-08-30T05:54:19;47.05;;;43.25;;
21569;SDS011;57598;50.888;4.746;2023-08-30T05:56:46;45.33;;;41.63;;
21569;SDS011;57598;50.888;4.746;2023-08-30T05:59:14;47.15;;;43.05;;
21569;SDS011;57598;50.888;4.746;2023-08-30T06:01:42;46.47;;;42.67;;
21569;SDS011;57598;50.888;4.746;2023-08-30T06:04:11;47.63;;;43.63;;
21569;SDS011;57598;50.888;4.746;2023-08-30T06:06:38;47.40;;;43.40;;
21569;SDS011;57598;50.888;4.746;2023-08-30T06:09:06;46.30;;;42.38;;
21569;SDS011;57598;50.888;4.746;2023-08-30T06:11:33;48.10;;;44.00;;
21569;SDS011;57598;50.888;4.746;2023-08-30T06:14:00;48.03;;;43.83;;
21569;SDS011;57598;50.888;4.746;2023-08-30T06:16:27;46.00;;;42.10;;
21569;SDS011;57598;50.888;4.746;2023-08-30T06:18:55;47.78;;;43.78;;
21569;SDS011;57598;50.888;4.746;2023-08-30T06:21:25;47.15;;;43.17;;
21569;SDS011;57598;50.888;4.746;2023-08-30T06:23:52;46.55;;;42.35;;
21569;SDS011;57598;50.888;4.746;2023-08-30T06:26:20;46.45;;;42.55;;
21569;SDS011;57598;50.888;4.746;2023-08-30T06:28:47;44.40;;;40.60;;
21569;SDS011;57598;50.888;4.746;2023-08-30T06:31:14;46.67;;;42.65;;
21569;SDS011;57598;50.888;4.746;2023-08-30T06:33:41;46.70;;;42.70;;
21569;SDS011;57598;50.888;4.746;2023-08-30T06:36:09;47.15;;;42.70;;
21569;SDS011;57598;50.888;4.746;2023-08-30T06:38:41;46.80;;;42.70;;
21569;SDS011;57598;50.888;4.746;2023-08-30T06:41:08;44.65;;;40.85;;
21569;SDS011;57598;50.888;4.746;2023-08-30T06:43:36;46.15;;;42.25;;
21569;SDS011;57598;50.888;4.746;2023-08-30T06:46:04;46.50;;;42.70;;
21569;SDS011;57598;50.888;4.746;2023-08-30T06:48:31;45.78;;;41.75;;
21569;SDS011;57598;50.888;4.746;2023-08-30T06:50:58;46.72;;;42.83;;
21569;SDS011;57598;50.888;4.746;2023-08-30T06:53:26;46.20;;;42.40;;
21569;SDS011;57598;50.888;4.746;2023-08-30T06:55:58;52.20;;;47.60;;
21569;SDS011;57598;50.888;4.746;2023-08-30T06:58:26;48.88;;;44.58;;
21569;SDS011;57598;50.888;4.746;2023-08-30T07:00:53;50.00;;;45.38;;
21569;SDS011;57598;50.888;4.746;2023-08-30T07:03:20;50.97;;;46.42;;
21569;SDS011;57598;50.888;4.746;2023-08-30T07:05:48;53.28;;;48.58;;
21569;SDS011;57598;50.888;4.746;2023-08-30T07:08:17;52.80;;;48.28;;
21569;SDS011;57598;50.888;4.746;2023-08-30T07:10:44;59.28;;;53.85;;
21569;SDS011;57598;50.888;4.746;2023-08-30T07:13:13;134.45;;;123.15;;
21569;SDS011;57598;50.888;4.746;2023-08-30T07:15:40;140.13;;;128.52;;
21569;SDS011;57598;50.888;4.746;2023-08-30T07:18:08;205.70;;;190.27;;
21569;SDS011;57598;50.888;4.746;2023-08-30T07:20:36;381.38;;;358.77;;
21569;SDS011;57598;50.888;4.746;2023-08-30T07:23:05;377.05;;;355.13;;
21569;SDS011;57598;50.888;4.746;2023-08-30T07:25:32;335.45;;;315.67;;
21569;SDS011;57598;50.888;4.746;2023-08-30T07:28:01;244.13;;;228.18;;
21569;SDS011;57598;50.888;4.746;2023-08-30T07:30:30;302.45;;;283.77;;
21569;SDS011;57598;50.888;4.746;2023-08-30T07:32:57;186.95;;;173.05;;
21569;SDS011;57598;50.888;4.746;2023-08-30T07:35:25;146.02;;;134.43;;
21569;SDS011;57598;50.888;4.746;2023-08-30T07:37:52;132.38;;;121.82;;
21569;SDS011;57598;50.888;4.746;2023-08-30T07:40:19;145.15;;;133.55;;
21569;SDS011;57598;50.888;4.746;2023-08-30T07:42:49;199.15;;;184.55;;
21569;SDS011;57598;50.888;4.746;2023-08-30T07:45:16;259.02;;;242.07;;
21569;SDS011;57598;50.888;4.746;2023-08-30T07:47:45;269.48;;;252.10;;
21569;SDS011;57598;50.888;4.746;2023-08-30T07:50:12;266.40;;;248.95;;
21569;SDS011;57598;50.888;4.746;2023-08-30T07:52:39;276.70;;;257.60;;
21569;SDS011;57598;50.888;4.746;2023-08-30T07:55:07;280.80;;;262.90;;
21569;SDS011;57598;50.888;4.746;2023-08-30T07:57:34;152.55;;;140.85;;
21569;SDS011;57598;50.888;4.746;2023-08-30T08:00:01;128.15;;;117.75;;
21569;SDS011;57598;50.888;4.746;2023-08-30T08:02:29;126.75;;;116.60;;
21569;SDS011;57598;50.888;4.746;2023-08-30T08:04:58;95.05;;;86.80;;
21569;SDS011;57598;50.888;4.746;2023-08-30T08:07:25;116.75;;;107.15;;
21569;SDS011;57598;50.888;4.746;2023-08-30T08:09:52;111.57;;;102.32;;
21569;SDS011;57598;50.888;4.746;2023-08-30T08:12:20;135.43;;;124.53;;
21569;SDS011;57598;50.888;4.746;2023-08-30T08:14:47;123.25;;;113.22;;
21569;SDS011;57598;50.888;4.746;2023-08-30T08:17:15;148.52;;;136.63;;
21569;SDS011;57598;50.888;4.746;2023-08-30T08:19:42;169.35;;;156.05;;
21569;SDS011;57598;50.888;4.746;2023-08-30T08:22:11;169.80;;;156.73;;
21569;SDS011;57598;50.888;4.746;2023-08-30T08:24:38;167.93;;;155.13;;
21569;SDS011;57598;50.888;4.746;2023-08-30T08:27:05;135.00;;;124.40;;
21569;SDS011;57598;50.888;4.746;2023-08-30T08:29:33;110.18;;;100.95;;
21569;SDS011;57598;50.888;4.746;2023-08-30T08:32:00;116.93;;;107.47;;
21569;SDS011;57598;50.888;4.746;2023-08-30T08:34:27;123.68;;;112.32;;
21569;SDS011;57598;50.888;4.746;2023-08-30T08:36:55;130.23;;;120.15;;
21569;SDS011;57598;50.888;4.746;2023-08-30T08:39:23;151.07;;;139.80;;
21569;SDS011;57598;50.888;4.746;2023-08-30T08:41:51;147.55;;;135.95;;
21569;SDS011;57598;50.888;4.746;2023-08-30T08:44:19;156.70;;;144.50;;
21569;SDS011;57598;50.888;4.746;2023-08-30T08:46:47;182.20;;;169.07;;
21569;SDS011;57598;50.888;4.746;2023-08-30T08:49:16;222.05;;;207.32;;
21569;SDS011;57598;50.888;4.746;2023-08-30T08:51:44;205.25;;;191.55;;
21569;SDS011;57598;50.888;4.746;2023-08-30T08:54:12;146.88;;;136.90;;
21569;SDS011;57598;50.888;4.746;2023-08-30T08:56:41;110.10;;;102.38;;
21569;SDS011;57598;50.888;4.746;2023-08-30T08:59:08;98.57;;;91.78;;
21569;SDS011;57598;50.888;4.746;2023-08-30T09:01:36;84.15;;;78.15;;
21569;SDS011;57598;50.888;4.746;2023-08-30T09:04:04;81.30;;;75.45;;
21569;SDS011;57598;50.888;4.746;2023-08-30T09:06:32;79.35;;;73.47;;
21569;SDS011;57598;50.888;4.746;2023-08-30T09:09:00;76.45;;;70.75;;
21569;SDS011;57598;50.888;4.746;2023-08-30T09:11:28;74.95;;;69.55;;
21569;SDS011;57598;50.888;4.746;2023-08-30T09:13:57;78.60;;;71.95;;
21569;SDS011;57598;50.888;4.746;2023-08-30T09:16:24;70.28;;;64.97;;
21569;SDS011;57598;50.888;4.746;2023-08-30T09:18:57;67.18;;;61.92;;
21569;SDS011;57598;50.888;4.746;2023-08-30T09:21:26;69.53;;;64.13;;
21569;SDS011;57598;50.888;4.746;2023-08-30T09:23:57;67.43;;;62.22;;
21569;SDS011;57598;50.888;4.746;2023-08-30T09:26:24;64.68;;;59.67;;
21569;SDS011;57598;50.888;4.746;2023-08-30T09:28:53;65.25;;;60.25;;
21569;SDS011;57598;50.888;4.746;2023-08-30T09:31:22;63.75;;;58.95;;
21569;SDS011;57598;50.888;4.746;2023-08-30T09:33:49;57.42;;;53.03;;
21569;SDS011;57598;50.888;4.746;2023-08-30T09:36:18;65.82;;;52.83;;
21569;SDS011;57598;50.888;4.746;2023-08-30T09:38:48;54.53;;;50.42;;
21569;SDS011;57598;50.888;4.746;2023-08-30T09:41:16;48.00;;;44.25;;
21569;SDS011;57598;50.888;4.746;2023-08-30T09:43:43;48.83;;;44.92;;
21569;SDS011;57598;50.888;4.746;2023-08-30T09:46:12;46.90;;;43.20;;
21569;SDS011;57598;50.888;4.746;2023-08-30T09:48:41;48.70;;;44.83;;
21569;SDS011;57598;50.888;4.746;2023-08-30T09:51:08;48.20;;;44.50;;
21569;SDS011;57598;50.888;4.746;2023-08-30T09:53:39;47.65;;;43.85;;
21569;SDS011;57598;50.888;4.746;2023-08-30T09:56:07;45.22;;;41.53;;
21569;SDS011;57598;50.888;4.746;2023-08-30T09:58:35;46.08;;;41.92;;
21569;SDS011;57598;50.888;4.746;2023-08-30T10:01:03;46.92;;;42.92;;
21569;SDS011;57598;50.888;4.746;2023-08-30T10:03:31;47.25;;;43.22;;
21569;SDS011;57598;50.888;4.746;2023-08-30T10:06:00;44.10;;;40.10;;
21569;SDS011;57598;50.888;4.746;2023-08-30T10:08:30;49.20;;;44.50;;
21569;SDS011;57598;50.888;4.746;2023-08-30T10:10:58;49.55;;;45.05;;
21569;SDS011;57598;50.888;4.746;2023-08-30T10:13:26;52.38;;;47.67;;
21569;SDS011;57598;50.888;4.746;2023-08-30T10:15:58;50.83;;;46.15;;
21569;SDS011;57598;50.888;4.746;2023-08-30T10:18:29;46.28;;;42.17;;
21569;SDS011;57598;50.888;4.746;2023-08-30T10:20:56;45.03;;;41.03;;
21569;SDS011;57598;50.888;4.746;2023-08-30T10:23:25;46.83;;;42.63;;
21569;SDS011;57598;50.888;4.746;2023-08-30T10:25:53;46.53;;;42.22;;
21569;SDS011;57598;50.888;4.746;2023-08-30T10:28:21;70.97;;;64.80;;
21569;SDS011;57598;50.888;4.746;2023-08-30T10:30:50;193.00;;;179.75;;
21569;SDS011;57598;50.888;4.746;2023-08-30T10:33:18;112.25;;;103.15;;
21569;SDS011;57598;50.888;4.746;2023-08-30T10:35:50;115.15;;;105.90;;
21569;SDS011;57598;50.888;4.746;2023-08-30T10:38:27;126.10;;;116.10;;
21569;SDS011;57598;50.888;4.746;2023-08-30T10:40:54;119.50;;;110.05;;
21569;SDS011;57598;50.888;4.746;2023-08-30T10:43:28;141.55;;;131.45;;
21569;SDS011;57598;50.888;4.746;2023-08-30T10:46:00;129.32;;;119.65;;
21569;SDS011;57598;50.888;4.746;2023-08-30T10:50:54;116.75;;;108.35;;
21569;SDS011;57598;50.888;4.746;2023-08-30T10:53:30;112.60;;;104.50;;
21569;SDS011;57598;50.888;4.746;2023-08-30T10:56:07;116.22;;;107.80;;
21569;SDS011;57598;50.888;4.746;2023-08-30T10:58:41;107.57;;;99.75;;
21569;SDS011;57598;50.888;4.746;2023-08-30T11:01:09;85.97;;;79.43;;
21569;SDS011;57598;50.888;4.746;2023-08-30T11:03:38;76.97;;;70.82;;
21569;SDS011;57598;50.888;4.746;2023-08-30T11:06:05;66.25;;;61.13;;
21569;SDS011;57598;50.888;4.746;2023-08-30T11:08:34;61.95;;;57.15;;
21569;SDS011;57598;50.888;4.746;2023-08-30T11:11:05;60.55;;;55.75;;
21569;SDS011;57598;50.888;4.746;2023-08-30T11:13:34;57.55;;;52.95;;
21569;SDS011;57598;50.888;4.746;2023-08-30T11:16:01;54.38;;;50.08;;
21569;SDS011;57598;50.888;4.746;2023-08-30T11:18:29;50.72;;;46.60;;
21569;SDS011;57598;50.888;4.746;2023-08-30T11:20:59;49.00;;;44.60;;
21569;SDS011;57598;50.888;4.746;2023-08-30T11:23:27;49.45;;;45.35;;
21569;SDS011;57598;50.888;4.746;2023-08-30T11:25:56;47.55;;;43.45;;
21569;SDS011;57598;50.888;4.746;2023-08-30T11:28:23;50.70;;;46.10;;
21569;SDS011;57598;50.888;4.746;2023-08-30T11:30:52;54.67;;;49.78;;
21569;SDS011;57598;50.888;4.746;2023-08-30T11:33:20;53.13;;;48.22;;
21569;SDS011;57598;50.888;4.746;2023-08-30T11:35:48;52.28;;;47.42;;
21569;SDS011;57598;50.888;4.746;2023-08-30T11:38:16;54.60;;;49.70;;
21569;SDS011;57598;50.888;4.746;2023-08-30T11:40:44;55.65;;;50.50;;
21569;SDS011;57598;50.888;4.746;2023-08-30T11:43:13;53.75;;;48.75;;
21569;SDS011;57598;50.888;4.746;2023-08-30T11:45:42;48.85;;;44.13;;
21569;SDS011;57598;50.888;4.746;2023-08-30T11:48:09;48.60;;;43.90;;
21569;SDS011;57598;50.888;4.746;2023-08-30T11:50:36;46.28;;;41.38;;
21569;SDS011;57598;50.888;4.746;2023-08-30T11:53:04;44.05;;;39.45;;
21569;SDS011;57598;50.888;4.746;2023-08-30T11:55:31;45.85;;;41.05;;
21569;SDS011;57598;50.888;4.746;2023-08-30T11:57:59;44.88;;;40.20;;
21569;SDS011;57598;50.888;4.746;2023-08-30T12:00:28;46.35;;;41.65;;
21569;SDS011;57598;50.888;4.746;2023-08-30T12:02:55;44.25;;;39.60;;
21569;SDS011;57598;50.888;4.746;2023-08-30T12:05:22;40.38;;;36.28;;
21569;SDS011;57598;50.888;4.746;2023-08-30T12:07:50;44.00;;;39.60;;
21569;SDS011;57598;50.888;4.746;2023-08-30T12:10:17;43.50;;;39.00;;
21569;SDS011;57598;50.888;4.746;2023-08-30T12:12:46;46.65;;;41.90;;
21569;SDS011;57598;50.888;4.746;2023-08-30T12:15:14;46.85;;;42.13;;
21569;SDS011;57598;50.888;4.746;2023-08-30T12:17:43;47.20;;;42.67;;
21569;SDS011;57598;50.888;4.746;2023-08-30T12:20:17;47.05;;;42.42;;
21569;SDS011;57598;50.888;4.746;2023-08-30T12:22:45;48.50;;;43.80;;
21569;SDS011;57598;50.888;4.746;2023-08-30T12:25:16;50.75;;;45.85;;
21569;SDS011;57598;50.888;4.746;2023-08-30T12:27:44;51.65;;;46.75;;
21569;SDS011;57598;50.888;4.746;2023-08-30T12:30:12;48.17;;;43.58;;
21569;SDS011;57598;50.888;4.746;2023-08-30T12:32:39;49.75;;;45.05;;
21569;SDS011;57598;50.888;4.746;2023-08-30T12:35:08;46.78;;;42.33;;
21569;SDS011;57598;50.888;4.746;2023-08-30T12:37:35;46.55;;;41.92;;
21569;SDS011;57598;50.888;4.746;2023-08-30T12:40:03;44.88;;;40.28;;
21569;SDS011;57598;50.888;4.746;2023-08-30T12:42:31;52.95;;;44.95;;
21569;SDS011;57598;50.888;4.746;2023-08-30T12:44:58;57.88;;;52.80;;
21569;SDS011;57598;50.888;4.746;2023-08-30T12:47:26;55.13;;;49.88;;
21569;SDS011;57598;50.888;4.746;2023-08-30T12:49:53;54.13;;;48.30;;
21569;SDS011;57598;50.888;4.746;2023-08-30T12:52:21;53.65;;;48.28;;
21569;SDS011;57598;50.888;4.746;2023-08-30T12:54:49;52.28;;;47.58;;
21569;SDS011;57598;50.888;4.746;2023-08-30T12:57:17;53.08;;;48.25;;
21569;SDS011;57598;50.888;4.746;2023-08-30T12:59:44;50.80;;;46.20;;
21569;SDS011;57598;50.888;4.746;2023-08-30T13:02:12;53.00;;;47.50;;
21569;SDS011;57598;50.888;4.746;2023-08-30T13:04:39;51.35;;;46.83;;
21569;SDS011;57598;50.888;4.746;2023-08-30T13:07:06;53.78;;;48.55;;
21569;SDS011;57598;50.888;4.746;2023-08-30T13:09:35;48.88;;;44.30;;
21569;SDS011;57598;50.888;4.746;2023-08-30T13:12:02;50.08;;;45.42;;
21569;SDS011;57598;50.888;4.746;2023-08-30T13:14:30;52.63;;;48.42;;
21569;SDS011;57598;50.888;4.746;2023-08-30T13:16:57;40.13;;;37.03;;
21569;SDS011;57598;50.888;4.746;2023-08-30T13:19:24;33.67;;;31.48;;
21569;SDS011;57598;50.888;4.746;2023-08-30T13:21:52;35.13;;;32.83;;
21569;SDS011;57598;50.888;4.746;2023-08-30T13:24:20;34.50;;;32.17;;
21569;SDS011;57598;50.888;4.746;2023-08-30T13:26:48;35.65;;;32.58;;
21569;SDS011;57598;50.888;4.746;2023-08-30T13:29:16;37.05;;;34.45;;
21569;SDS011;57598;50.888;4.746;2023-08-30T13:31:43;36.15;;;33.75;;
21569;SDS011;57598;50.888;4.746;2023-08-30T13:34:10;36.65;;;33.67;;
21569;SDS011;57598;50.888;4.746;2023-08-30T13:36:37;33.50;;;31.20;;
21569;SDS011;57598;50.888;4.746;2023-08-30T13:39:05;33.72;;;31.25;;
21569;SDS011;57598;50.888;4.746;2023-08-30T13:41:32;34.92;;;32.25;;
21569;SDS011;57598;50.888;4.746;2023-08-30T13:44:02;32.80;;;30.60;;
21569;SDS011;57598;50.888;4.746;2023-08-30T13:46:29;31.10;;;28.58;;
21569;SDS011;57598;50.888;4.746;2023-08-30T13:48:56;30.60;;;28.35;;
21569;SDS011;57598;50.888;4.746;2023-08-30T13:51:24;31.38;;;29.15;;
21569;SDS011;57598;50.888;4.746;2023-08-30T13:53:52;30.23;;;28.33;;
21569;SDS011;57598;50.888;4.746;2023-08-30T13:56:19;29.98;;;28.17;;
21569;SDS011;57598;50.888;4.746;2023-08-30T13:58:47;30.60;;;28.50;;
21569;SDS011;57598;50.888;4.746;2023-08-30T14:01:16;31.10;;;29.00;;
21569;SDS011;57598;50.888;4.746;2023-08-30T14:03:43;30.67;;;28.77;;
21569;SDS011;57598;50.888;4.746;2023-08-30T14:06:10;30.30;;;28.10;;
21569;SDS011;57598;50.888;4.746;2023-08-30T14:08:37;29.40;;;27.50;;
21569;SDS011;57598;50.888;4.746;2023-08-30T14:11:05;31.50;;;29.30;;
21569;SDS011;57598;50.888;4.746;2023-08-30T14:13:32;30.02;;;28.13;;
21569;SDS011;57598;50.888;4.746;2023-08-30T14:15:59;29.30;;;27.50;;
21569;SDS011;57598;50.888;4.746;2023-08-30T14:18:28;29.73;;;27.63;;
21569;SDS011;57598;50.888;4.746;2023-08-30T14:20:55;30.30;;;28.17;;
21569;SDS011;57598;50.888;4.746;2023-08-30T14:23:23;30.83;;;28.38;;
21569;SDS011;57598;50.888;4.746;2023-08-30T14:25:57;30.42;;;27.88;;
21569;SDS011;57598;50.888;4.746;2023-08-30T14:28:24;29.52;;;27.30;;
21569;SDS011;57598;50.888;4.746;2023-08-30T14:30:51;29.33;;;27.52;;